sensor_id;sensor_type;location;lat;lon;timestamp;pressure;altitude;pressure_sealevel;temperature;humidity
65280;BME280;51878;55.748;48.742;2023-03-19T00:03:59;100798.59;;;-5.02;65.32
65280;BME280;51878;55.748;48.742;2023-03-19T00:09:01;100770.03;;;-5.17;65.72
65280;BME280;51878;55.748;48.742;2023-03-19T00:14:21;100808.94;;;-4.96;64.97
65280;BME280;51878;55.748;48.742;2023-03-19T00:19:23;100777.13;;;-5.18;64.89
65280;BME280;51878;55.748;48.742;2023-03-19T00:24:26;100789.03;;;-5.06;64.46
65280;BME280;51878;55.748;48.742;2023-03-19T00:29:28;100654.19;;;-5.80;64.34
65280;BME280;51878;55.748;48.742;2023-03-19T00:34:30;100800.41;;;-5.04;64.12
65280;BME280;51878;55.748;48.742;2023-03-19T00:39:32;100733.38;;;-5.27;64.81
65280;BME280;51878;55.748;48.742;2023-03-19T00:44:34;100748.25;;;-5.24;64.28
65280;BME280;51878;55.748;48.742;2023-03-19T00:49:36;100703.38;;;-5.51;64.21
65280;BME280;51878;55.748;48.742;2023-03-19T00:54:39;100734.59;;;-5.37;64.16
65280;BME280;51878;55.748;48.742;2023-03-19T00:59:41;100763.09;;;-5.20;64.24
65280;BME280;51878;55.748;48.742;2023-03-19T01:04:43;100781.50;;;-5.19;64.68
65280;BME280;51878;55.748;48.742;2023-03-19T01:09:45;100772.84;;;-5.22;64.52
65280;BME280;51878;55.748;48.742;2023-03-19T01:14:47;100789.81;;;-5.29;64.52
65280;BME280;51878;55.748;48.742;2023-03-19T01:19:49;100675.75;;;-5.92;64.94
65280;BME280;51878;55.748;48.742;2023-03-19T01:24:52;100762.84;;;-5.39;64.90
65280;BME280;51878;55.748;48.742;2023-03-19T01:29:54;100807.28;;;-5.25;64.67
65280;BME280;51878;55.748;48.742;2023-03-19T01:34:57;100731.22;;;-5.67;65.00
65280;BME280;51878;55.748;48.742;2023-03-19T01:39:59;100760.44;;;-5.72;65.72
65280;BME280;51878;55.748;48.742;2023-03-19T01:45:02;100710.88;;;-5.90;65.28
65280;BME280;51878;55.748;48.742;2023-03-19T01:50:04;100806.13;;;-5.43;65.84
65280;BME280;51878;55.748;48.742;2023-03-19T01:55:08;100695.91;;;-5.90;66.11
65280;BME280;51878;55.748;48.742;2023-03-19T02:00:10;100765.41;;;-5.63;66.15
65280;BME280;51878;55.748;48.742;2023-03-19T02:05:14;100700.66;;;-5.99;66.88
65280;BME280;51878;55.748;48.742;2023-03-19T02:10:25;100782.69;;;-5.52;66.77
65280;BME280;51878;55.748;48.742;2023-03-19T02:15:28;100756.00;;;-5.71;67.10
65280;BME280;51878;55.748;48.742;2023-03-19T02:20:57;100792.63;;;-5.61;67.47
65280;BME280;51878;55.748;48.742;2023-03-19T02:26:08;100780.50;;;-5.66;68.01
65280;BME280;51878;55.748;48.742;2023-03-19T02:31:11;100675.34;;;-6.33;68.15
65280;BME280;51878;55.748;48.742;2023-03-19T02:36:16;100686.69;;;-6.30;68.29
65280;BME280;51878;55.748;48.742;2023-03-19T02:41:20;100691.81;;;-6.25;68.63
65280;BME280;51878;55.748;48.742;2023-03-19T02:46:24;100673.97;;;-6.45;69.02
65280;BME280;51878;55.748;48.742;2023-03-19T02:51:27;100703.22;;;-6.25;69.13
65280;BME280;51878;55.748;48.742;2023-03-19T02:56:30;100753.31;;;-5.95;69.23
65280;BME280;51878;55.748;48.742;2023-03-19T03:01:32;100783.56;;;-5.80;68.96
65280;BME280;51878;55.748;48.742;2023-03-19T03:06:34;100755.28;;;-6.01;69.23
65280;BME280;51878;55.748;48.742;2023-03-19T03:11:36;100755.31;;;-6.03;69.74
65280;BME280;51878;55.748;48.742;2023-03-19T03:16:38;100694.63;;;-6.31;69.58
65280;BME280;51878;55.748;48.742;2023-03-19T03:21:40;100665.38;;;-6.50;69.69
65280;BME280;51878;55.748;48.742;2023-03-19T03:26:43;100738.41;;;-5.97;70.11
65280;BME280;51878;55.748;48.742;2023-03-19T03:31:45;100688.22;;;-6.22;70.01
65280;BME280;51878;55.748;48.742;2023-03-19T03:36:47;100698.25;;;-6.07;69.02
65280;BME280;51878;55.748;48.742;2023-03-19T03:41:49;100652.19;;;-6.24;69.09
65280;BME280;51878;55.748;48.742;2023-03-19T03:46:52;100648.47;;;-6.18;69.21
65280;BME280;51878;55.748;48.742;2023-03-19T03:51:54;100683.56;;;-5.89;69.07
65280;BME280;51878;55.748;48.742;2023-03-19T03:56:56;100748.22;;;-5.49;68.54
65280;BME280;51878;55.748;48.742;2023-03-19T04:01:58;100654.47;;;-5.88;68.23
65280;BME280;51878;55.748;48.742;2023-03-19T04:07:00;100617.09;;;-6.00;67.32
65280;BME280;51878;55.748;48.742;2023-03-19T04:12:03;100708.81;;;-5.30;67.26
65280;BME280;51878;55.748;48.742;2023-03-19T04:17:05;100684.09;;;-5.29;66.22
65280;BME280;51878;55.748;48.742;2023-03-19T04:22:07;100736.31;;;-4.87;65.31
65280;BME280;51878;55.748;48.742;2023-03-19T04:27:09;100722.47;;;-4.70;64.30
65280;BME280;51878;55.748;48.742;2023-03-19T04:32:12;100558.00;;;-5.49;64.37
65280;BME280;51878;55.748;48.742;2023-03-19T04:37:14;100637.84;;;-4.94;62.10
65280;BME280;51878;55.748;48.742;2023-03-19T04:42:16;100709.69;;;-4.36;61.55
65280;BME280;51878;55.748;48.742;2023-03-19T04:47:18;100638.44;;;-4.64;59.98
65280;BME280;51878;55.748;48.742;2023-03-19T04:52:20;100623.81;;;-4.50;60.18
65280;BME280;51878;55.748;48.742;2023-03-19T04:57:23;100698.31;;;-3.95;59.63
65280;BME280;51878;55.748;48.742;2023-03-19T05:02:25;100629.13;;;-4.30;58.52
65280;BME280;51878;55.748;48.742;2023-03-19T05:07:27;100696.69;;;-3.77;57.98
65280;BME280;51878;55.748;48.742;2023-03-19T05:12:30;100700.53;;;-3.64;57.27
65280;BME280;51878;55.748;48.742;2023-03-19T05:17:32;100607.75;;;-3.83;57.55
65280;BME280;51878;55.748;48.742;2023-03-19T05:22:36;100694.63;;;-3.09;56.11
65280;BME280;51878;55.748;48.742;2023-03-19T05:27:40;100538.31;;;-3.89;56.06
65280;BME280;51878;55.748;48.742;2023-03-19T05:32:42;100607.59;;;-3.20;55.68
65280;BME280;51878;55.748;48.742;2023-03-19T05:37:45;100688.16;;;-2.64;55.02
65280;BME280;51878;55.748;48.742;2023-03-19T05:42:47;100597.06;;;-2.83;54.79
65280;BME280;51878;55.748;48.742;2023-03-19T05:47:49;100608.25;;;-2.40;54.51
65280;BME280;51878;55.748;48.742;2023-03-19T05:52:51;100672.72;;;-1.83;53.27
65280;BME280;51878;55.748;48.742;2023-03-19T05:57:53;100652.31;;;-1.82;52.05
65280;BME280;51878;55.748;48.742;2023-03-19T06:02:57;100577.91;;;-2.17;51.50
65280;BME280;51878;55.748;48.742;2023-03-19T06:08:00;100596.47;;;-1.48;50.90
65280;BME280;51878;55.748;48.742;2023-03-19T06:13:02;100595.19;;;-1.40;50.46
65280;BME280;51878;55.748;48.742;2023-03-19T06:18:05;100580.81;;;-1.36;49.45
65280;BME280;51878;55.748;48.742;2023-03-19T06:23:09;100530.13;;;-1.51;49.10
65280;BME280;51878;55.748;48.742;2023-03-19T06:28:12;100626.97;;;-0.56;48.43
65280;BME280;51878;55.748;48.742;2023-03-19T06:33:14;100662.97;;;-0.17;48.02
65280;BME280;51878;55.748;48.742;2023-03-19T06:44:24;100572.75;;;0.35;46.90
65280;BME280;51878;55.748;48.742;2023-03-19T06:49:31;100555.88;;;0.64;45.78
65280;BME280;51878;55.748;48.742;2023-03-19T06:54:33;100624.03;;;1.12;44.38
65280;BME280;51878;55.748;48.742;2023-03-19T06:59:37;100541.91;;;0.60;43.94
65280;BME280;51878;55.748;48.742;2023-03-19T07:04:39;100591.13;;;1.26;43.95
65280;BME280;51878;55.748;48.742;2023-03-19T07:09:41;100588.00;;;1.47;43.78
65280;BME280;51878;55.748;48.742;2023-03-19T07:14:43;100551.13;;;1.79;42.34
65280;BME280;51878;55.748;48.742;2023-03-19T07:19:45;100610.50;;;2.37;43.19
65280;BME280;51878;55.748;48.742;2023-03-19T07:24:47;100471.25;;;1.74;41.99
65280;BME280;51878;55.748;48.742;2023-03-19T07:29:49;100544.22;;;2.53;41.60
65280;BME280;51878;55.748;48.742;2023-03-19T07:34:52;100626.72;;;3.36;41.02
65280;BME280;51878;55.748;48.742;2023-03-19T07:39:57;100512.31;;;3.37;40.40
65280;BME280;51878;55.748;48.742;2023-03-19T07:44:59;100573.47;;;3.80;39.77
65280;BME280;51878;55.748;48.742;2023-03-19T07:50:06;100522.63;;;3.78;39.50
65280;BME280;51878;55.748;48.742;2023-03-19T07:55:08;100509.53;;;4.09;38.27
65280;BME280;51878;55.748;48.742;2023-03-19T08:00:13;100511.03;;;4.24;37.95
65280;BME280;51878;55.748;48.742;2023-03-19T08:05:16;100482.09;;;4.17;39.44
65280;BME280;51878;55.748;48.742;2023-03-19T08:10:20;100551.50;;;4.68;39.24
65280;BME280;51878;55.748;48.742;2023-03-19T08:15:23;100572.81;;;5.37;37.63
65280;BME280;51878;55.748;48.742;2023-03-19T08:20:25;100573.97;;;5.67;37.48
65280;BME280;51878;55.748;48.742;2023-03-19T08:25:27;100428.38;;;5.49;36.61
65280;BME280;51878;55.748;48.742;2023-03-19T08:30:33;100493.44;;;6.07;36.96
65280;BME280;51878;55.748;48.742;2023-03-19T08:35:35;100541.16;;;6.47;35.37
65280;BME280;51878;55.748;48.742;2023-03-19T08:40:37;100487.81;;;6.72;36.34
65280;BME280;51878;55.748;48.742;2023-03-19T08:45:40;100507.28;;;6.85;35.45
65280;BME280;51878;55.748;48.742;2023-03-19T08:50:42;100493.69;;;6.87;35.28
65280;BME280;51878;55.748;48.742;2023-03-19T08:55:56;100464.66;;;7.19;34.46
65280;BME280;51878;55.748;48.742;2023-03-19T09:01:03;100304.88;;;6.18;34.93
65280;BME280;51878;55.748;48.742;2023-03-19T09:06:10;100448.84;;;6.86;33.64
65280;BME280;51878;55.748;48.742;2023-03-19T09:11:12;100477.47;;;7.76;33.38
65280;BME280;51878;55.748;48.742;2023-03-19T09:16:15;100409.59;;;7.32;33.16
65280;BME280;51878;55.748;48.742;2023-03-19T09:21:17;100425.22;;;7.38;33.28
65280;BME280;51878;55.748;48.742;2023-03-19T09:26:19;100439.25;;;7.51;33.45
65280;BME280;51878;55.748;48.742;2023-03-19T09:31:22;100365.03;;;7.28;32.26
65280;BME280;51878;55.748;48.742;2023-03-19T09:36:24;100392.84;;;8.04;33.08
65280;BME280;51878;55.748;48.742;2023-03-19T09:47:33;100327.84;;;7.88;31.71
65280;BME280;51878;55.748;48.742;2023-03-19T09:57:43;100428.81;;;9.07;31.04
65280;BME280;51878;55.748;48.742;2023-03-19T10:02:45;100427.13;;;8.79;31.40
65280;BME280;51878;55.748;48.742;2023-03-19T10:13:26;100427.09;;;9.78;31.10
65280;BME280;51878;55.748;48.742;2023-03-19T10:18:36;100338.81;;;9.41;30.66
65280;BME280;51878;55.748;48.742;2023-03-19T10:23:51;100347.16;;;9.48;30.26
65280;BME280;51878;55.748;48.742;2023-03-19T10:29:17;100326.72;;;10.06;29.30
65280;BME280;51878;55.748;48.742;2023-03-19T10:34:35;100204.22;;;9.51;29.14
65280;BME280;51878;55.748;48.742;2023-03-19T10:39:42;100384.06;;;11.21;29.58
65280;BME280;51878;55.748;48.742;2023-03-19T10:45:23;100380.19;;;11.31;28.96
65280;BME280;51878;55.748;48.742;2023-03-19T10:50:34;100379.31;;;11.64;29.80
65280;BME280;51878;55.748;48.742;2023-03-19T10:55:37;100319.72;;;11.95;29.61
65280;BME280;51878;55.748;48.742;2023-03-19T11:00:39;100357.34;;;12.23;27.98
65280;BME280;51878;55.748;48.742;2023-03-19T11:05:41;100337.00;;;13.12;28.23
65280;BME280;51878;55.748;48.742;2023-03-19T11:10:46;100301.16;;;12.77;26.50
65280;BME280;51878;55.748;48.742;2023-03-19T11:15:51;100351.19;;;13.69;26.50
65280;BME280;51878;55.748;48.742;2023-03-19T11:20:57;100260.31;;;13.00;27.34
65280;BME280;51878;55.748;48.742;2023-03-19T11:26:00;100263.31;;;12.91;27.08
65280;BME280;51878;55.748;48.742;2023-03-19T11:31:25;100344.00;;;13.76;26.67
65280;BME280;51878;55.748;48.742;2023-03-19T11:36:30;100344.53;;;13.86;26.33
65280;BME280;51878;55.748;48.742;2023-03-19T11:41:43;100342.22;;;14.13;26.48
65280;BME280;51878;55.748;48.742;2023-03-19T11:47:22;100331.78;;;14.61;26.04
65280;BME280;51878;55.748;48.742;2023-03-19T11:52:39;100292.59;;;14.02;26.54
65280;BME280;51878;55.748;48.742;2023-03-19T12:08:58;100292.31;;;15.00;25.94
65280;BME280;51878;55.748;48.742;2023-03-19T12:14:19;100205.63;;;14.65;26.05
65280;BME280;51878;55.748;48.742;2023-03-19T12:34:51;100189.47;;;15.42;25.22
65280;BME280;51878;55.748;48.742;2023-03-19T12:40:04;100247.31;;;15.17;26.22
65280;BME280;51878;55.748;48.742;2023-03-19T12:45:29;100250.56;;;15.06;25.99
65280;BME280;51878;55.748;48.742;2023-03-19T12:50:35;100116.97;;;13.82;26.79
65280;BME280;51878;55.748;48.742;2023-03-19T12:55:49;100260.81;;;14.46;26.29
65280;BME280;51878;55.748;48.742;2023-03-19T13:01:02;100221.03;;;14.00;26.80
65280;BME280;51878;55.748;48.742;2023-03-19T13:06:17;100239.25;;;14.15;27.18
65280;BME280;51878;55.748;48.742;2023-03-19T13:11:33;100227.09;;;14.69;27.05
65280;BME280;51878;55.748;48.742;2023-03-19T13:17:02;100211.38;;;14.34;26.61
65280;BME280;51878;55.748;48.742;2023-03-19T13:22:09;100216.16;;;13.66;28.06
65280;BME280;51878;55.748;48.742;2023-03-19T13:27:25;100160.06;;;13.42;28.19
65280;BME280;51878;55.748;48.742;2023-03-19T13:32:48;100215.00;;;13.31;29.15
65280;BME280;51878;55.748;48.742;2023-03-19T13:38:40;100101.34;;;12.57;29.70
65280;BME280;51878;55.748;48.742;2023-03-19T14:09:42;100170.84;;;11.18;34.08
65280;BME280;51878;55.748;48.742;2023-03-19T14:14:55;100094.78;;;10.38;34.55
65280;BME280;51878;55.748;48.742;2023-03-19T14:20:26;100154.09;;;10.41;35.25
65280;BME280;51878;55.748;48.742;2023-03-19T14:26:14;100063.72;;;9.83;35.82
65280;BME280;51878;55.748;48.742;2023-03-19T14:31:25;100076.28;;;9.41;36.21
65280;BME280;51878;55.748;48.742;2023-03-19T14:36:29;100092.44;;;7.01;39.62
65280;BME280;51878;55.748;48.742;2023-03-19T14:41:34;100151.56;;;5.57;43.54
65280;BME280;51878;55.748;48.742;2023-03-19T14:57:28;100097.84;;;2.34;51.27
65280;BME280;51878;55.748;48.742;2023-03-19T15:07:40;100063.91;;;1.03;60.18
65280;BME280;51878;55.748;48.742;2023-03-19T15:18:02;100115.88;;;0.86;61.94
65280;BME280;51878;55.748;48.742;2023-03-19T15:23:07;100059.28;;;0.17;67.50
65280;BME280;51878;55.748;48.742;2023-03-19T15:28:47;100111.25;;;0.37;67.22
65280;BME280;51878;55.748;48.742;2023-03-19T15:33:50;100047.28;;;-0.16;71.19
65280;BME280;51878;55.748;48.742;2023-03-19T15:39:10;100082.63;;;0.01;75.11
65280;BME280;51878;55.748;48.742;2023-03-19T15:44:27;100119.88;;;0.28;68.88
65280;BME280;51878;55.748;48.742;2023-03-19T15:49:38;100020.03;;;-0.47;75.06
65280;BME280;51878;55.748;48.742;2023-03-19T15:54:42;100092.31;;;0.02;72.81
65280;BME280;51878;55.748;48.742;2023-03-19T15:59:45;100094.88;;;0.03;72.20
65280;BME280;51878;55.748;48.742;2023-03-19T16:04:47;100008.63;;;-0.49;73.14
65280;BME280;51878;55.748;48.742;2023-03-19T16:15:44;100004.06;;;-0.47;76.24
65280;BME280;51878;55.748;48.742;2023-03-19T16:26:17;99998.28;;;-0.66;83.81
65280;BME280;51878;55.748;48.742;2023-03-19T16:31:28;100021.50;;;-0.55;86.39
65280;BME280;51878;55.748;48.742;2023-03-19T16:36:32;100069.13;;;-0.24;89.18
65280;BME280;51878;55.748;48.742;2023-03-19T16:41:35;100041.69;;;-0.38;92.41
65280;BME280;51878;55.748;48.742;2023-03-19T16:46:37;100041.16;;;-0.44;94.13
65280;BME280;51878;55.748;48.742;2023-03-19T16:51:39;100034.56;;;-0.38;95.17
65280;BME280;51878;55.748;48.742;2023-03-19T16:56:42;100048.09;;;-0.41;98.42
65280;BME280;51878;55.748;48.742;2023-03-19T17:01:44;99958.59;;;-0.84;100.00
65280;BME280;51878;55.748;48.742;2023-03-19T17:06:46;100039.69;;;-0.35;100.00
65280;BME280;51878;55.748;48.742;2023-03-19T17:11:52;99981.25;;;-0.64;100.00
65280;BME280;51878;55.748;48.742;2023-03-19T17:16:54;100022.84;;;-0.35;100.00
65280;BME280;51878;55.748;48.742;2023-03-19T17:21:58;99991.69;;;-0.60;100.00
65280;BME280;51878;55.748;48.742;2023-03-19T17:27:02;100025.41;;;-0.34;100.00
65280;BME280;51878;55.748;48.742;2023-03-19T17:32:06;99982.13;;;-0.50;100.00
65280;BME280;51878;55.748;48.742;2023-03-19T17:37:17;99971.78;;;-0.55;100.00
65280;BME280;51878;55.748;48.742;2023-03-19T17:42:22;99982.00;;;-0.49;100.00
65280;BME280;51878;55.748;48.742;2023-03-19T17:47:27;100013.91;;;-0.34;100.00
65280;BME280;51878;55.748;48.742;2023-03-19T17:52:29;99967.22;;;-0.53;100.00
65280;BME280;51878;55.748;48.742;2023-03-19T17:57:31;99959.84;;;-0.49;100.00
65280;BME280;51878;55.748;48.742;2023-03-19T18:02:34;99989.72;;;-0.31;100.00
65280;BME280;51878;55.748;48.742;2023-03-19T18:07:37;99941.63;;;-0.55;100.00
65280;BME280;51878;55.748;48.742;2023-03-19T18:12:39;99913.28;;;-0.69;100.00
65280;BME280;51878;55.748;48.742;2023-03-19T18:17:48;99978.47;;;-0.22;100.00
65280;BME280;51878;55.748;48.742;2023-03-19T18:22:51;99966.91;;;-0.35;100.00
65280;BME280;51878;55.748;48.742;2023-03-19T18:27:53;99983.22;;;-0.27;100.00
65280;BME280;51878;55.748;48.742;2023-03-19T18:33:06;99970.56;;;-0.24;100.00
65280;BME280;51878;55.748;48.742;2023-03-19T18:38:18;99925.34;;;-0.38;100.00
65280;BME280;51878;55.748;48.742;2023-03-19T18:43:21;99973.34;;;-0.12;100.00
65280;BME280;51878;55.748;48.742;2023-03-19T18:48:28;99900.50;;;-0.51;100.00
65280;BME280;51878;55.748;48.742;2023-03-19T18:53:33;99959.59;;;-0.19;100.00
65280;BME280;51878;55.748;48.742;2023-03-19T18:58:37;99855.34;;;-0.78;100.00
65280;BME280;51878;55.748;48.742;2023-03-19T19:03:39;99898.94;;;-0.41;100.00
65280;BME280;51878;55.748;48.742;2023-03-19T19:08:44;99756.16;;;-1.33;100.00
65280;BME280;51878;55.748;48.742;2023-03-19T19:13:52;99943.81;;;-0.09;100.00
65280;BME280;51878;55.748;48.742;2023-03-19T19:18:57;99940.63;;;-0.14;100.00
65280;BME280;51878;55.748;48.742;2023-03-19T19:23:59;99938.06;;;-0.03;100.00
65280;BME280;51878;55.748;48.742;2023-03-19T19:29:02;99939.66;;;-0.01;100.00
65280;BME280;51878;55.748;48.742;2023-03-19T19:34:05;99926.63;;;0.08;100.00
65280;BME280;51878;55.748;48.742;2023-03-19T19:39:07;99882.00;;;-0.27;100.00
65280;BME280;51878;55.748;48.742;2023-03-19T19:44:19;99937.63;;;-0.10;100.00
65280;BME280;51878;55.748;48.742;2023-03-19T19:49:22;99931.75;;;0.11;100.00
65280;BME280;51878;55.748;48.742;2023-03-19T19:54:25;99916.81;;;0.08;100.00
65280;BME280;51878;55.748;48.742;2023-03-19T19:59:28;99914.47;;;0.04;100.00
65280;BME280;51878;55.748;48.742;2023-03-19T20:04:30;99784.31;;;-0.78;100.00
65280;BME280;51878;55.748;48.742;2023-03-19T20:09:32;99900.22;;;-0.08;100.00
65280;BME280;51878;55.748;48.742;2023-03-19T20:14:34;99871.22;;;-0.13;100.00
65280;BME280;51878;55.748;48.742;2023-03-19T20:19:36;99757.69;;;-0.91;100.00
65280;BME280;51878;55.748;48.742;2023-03-19T20:24:38;99891.91;;;0.09;100.00
65280;BME280;51878;55.748;48.742;2023-03-19T20:29:40;99815.63;;;-0.30;100.00
65280;BME280;51878;55.748;48.742;2023-03-19T20:34:42;99794.22;;;-0.42;100.00
65280;BME280;51878;55.748;48.742;2023-03-19T20:39:44;99883.16;;;0.07;100.00
65280;BME280;51878;55.748;48.742;2023-03-19T20:44:47;99868.00;;;-0.05;100.00
65280;BME280;51878;55.748;48.742;2023-03-19T20:49:50;99756.53;;;-0.61;100.00
65280;BME280;51878;55.748;48.742;2023-03-19T20:54:54;99872.91;;;0.14;100.00
65280;BME280;51878;55.748;48.742;2023-03-19T20:59:59;99836.78;;;-0.03;100.00
65280;BME280;51878;55.748;48.742;2023-03-19T21:05:04;99840.75;;;-0.09;100.00
65280;BME280;51878;55.748;48.742;2023-03-19T21:10:20;99847.94;;;0.02;100.00
65280;BME280;51878;55.748;48.742;2023-03-19T21:15:23;99865.00;;;0.12;100.00
65280;BME280;51878;55.748;48.742;2023-03-19T21:20:53;99877.91;;;0.18;100.00
65280;BME280;51878;55.748;48.742;2023-03-19T21:26:13;99797.50;;;-0.25;100.00
65280;BME280;51878;55.748;48.742;2023-03-19T21:31:18;99822.50;;;-0.02;100.00
65280;BME280;51878;55.748;48.742;2023-03-19T21:36:21;99798.41;;;-0.13;100.00
65280;BME280;51878;55.748;48.742;2023-03-19T21:41:26;99848.69;;;0.17;100.00
65280;BME280;51878;55.748;48.742;2023-03-19T21:46:31;99800.88;;;-0.10;100.00
65280;BME280;51878;55.748;48.742;2023-03-19T21:51:34;99803.97;;;-0.04;100.00
65280;BME280;51878;55.748;48.742;2023-03-19T21:56:39;99737.41;;;-0.42;100.00
65280;BME280;51878;55.748;48.742;2023-03-19T22:01:42;99857.38;;;0.32;100.00
65280;BME280;51878;55.748;48.742;2023-03-19T22:06:44;99843.63;;;0.38;100.00
65280;BME280;51878;55.748;48.742;2023-03-19T22:11:47;99835.97;;;0.33;100.00
65280;BME280;51878;55.748;48.742;2023-03-19T22:16:52;99821.06;;;0.18;100.00
65280;BME280;51878;55.748;48.742;2023-03-19T22:21:54;99774.75;;;-0.05;100.00
65280;BME280;51878;55.748;48.742;2023-03-19T22:26:57;99762.19;;;-0.16;100.00
65280;BME280;51878;55.748;48.742;2023-03-19T22:31:59;99828.91;;;0.32;100.00
65280;BME280;51878;55.748;48.742;2023-03-19T22:37:12;99765.34;;;0.02;100.00
65280;BME280;51878;55.748;48.742;2023-03-19T22:42:24;99795.25;;;0.18;100.00
65280;BME280;51878;55.748;48.742;2023-03-19T22:47:27;99788.34;;;0.16;100.00
65280;BME280;51878;55.748;48.742;2023-03-19T22:52:29;99752.81;;;-0.09;100.00
65280;BME280;51878;55.748;48.742;2023-03-19T22:57:31;99807.22;;;0.37;100.00
65280;BME280;51878;55.748;48.742;2023-03-19T23:02:33;99742.56;;;-0.02;100.00
65280;BME280;51878;55.748;48.742;2023-03-19T23:07:37;99707.91;;;-0.26;100.00
65280;BME280;51878;55.748;48.742;2023-03-19T23:12:39;99711.81;;;-0.19;100.00
65280;BME280;51878;55.748;48.742;2023-03-19T23:17:43;99782.22;;;0.27;100.00
65280;BME280;51878;55.748;48.742;2023-03-19T23:22:45;99817.84;;;0.50;100.00
65280;BME280;51878;55.748;48.742;2023-03-19T23:27:48;99819.78;;;0.48;100.00
65280;BME280;51878;55.748;48.742;2023-03-19T23:32:51;99732.91;;;0.08;100.00
65280;BME280;51878;55.748;48.742;2023-03-19T23:37:54;99683.44;;;-0.20;100.00
65280;BME280;51878;55.748;48.742;2023-03-19T23:42:58;99793.91;;;0.37;100.00
65280;BME280;51878;55.748;48.742;2023-03-19T23:48:06;99737.22;;;-0.02;100.00
65280;BME280;51878;55.748;48.742;2023-03-19T23:53:22;99745.00;;;0.01;100.00
65280;BME280;51878;55.748;48.742;2023-03-19T23:58:35;99742.97;;;0.05;100.00
